createdAt,value
2022-08-25T00:01:52.650Z,2.00
2022-08-25T00:04:23.171Z,2.15
2022-08-25T00:06:51.255Z,1.77
2022-08-25T00:09:21.411Z,1.60
2022-08-25T00:11:49.483Z,1.80
2022-08-25T00:14:21.015Z,2.15
2022-08-25T00:16:48.490Z,1.65
2022-08-25T00:19:20.819Z,2.00
2022-08-25T00:21:48.586Z,1.70
2022-08-25T00:24:17.800Z,1.73
2022-08-25T00:26:49.748Z,2.03
2022-08-25T00:29:17.705Z,1.73
2022-08-25T00:31:45.500Z,1.50
2022-08-25T00:34:16.969Z,1.73
2022-08-25T00:36:44.936Z,1.80
2022-08-25T00:39:12.046Z,1.50
2022-08-25T00:41:42.378Z,1.70
2022-08-25T00:44:12.620Z,1.80
2022-08-25T00:46:44.167Z,2.08
2022-08-25T00:49:22.474Z,1.80
2022-08-25T00:52:21.579Z,1.58
2022-08-25T00:55:07.956Z,1.80
2022-08-25T00:57:40.325Z,1.35
2022-08-25T01:00:13.854Z,2.15
2022-08-25T01:02:41.125Z,1.95
2022-08-25T01:05:08.876Z,1.55
2022-08-25T01:07:37.277Z,1.48
2022-08-25T01:10:07.835Z,1.23
2022-08-25T01:12:37.346Z,1.92
2022-08-25T01:15:06.329Z,1.80
2022-08-25T01:17:50.090Z,1.67
2022-08-25T01:20:19.816Z,1.45
2022-08-25T01:22:54.985Z,1.65
2022-08-25T01:25:25.370Z,1.90
2022-08-25T01:27:52.733Z,1.70
2022-08-25T01:30:19.865Z,1.92
2022-08-25T01:32:47.074Z,1.65
2022-08-25T01:35:14.207Z,1.50
2022-08-25T01:37:41.538Z,1.60
2022-08-25T01:40:09.341Z,1.70
2022-08-25T01:43:00.848Z,1.30
2022-08-25T01:45:28.847Z,2.05
2022-08-25T01:47:56.802Z,1.98
2022-08-25T01:50:24.546Z,1.88
2022-08-25T01:52:56.304Z,1.77
2022-08-25T01:55:23.485Z,1.30
2022-08-25T01:57:50.623Z,1.58
2022-08-25T02:00:19.847Z,1.80
2022-08-25T02:05:23.318Z,2.00
2022-08-25T02:07:50.990Z,1.40
2022-08-25T02:10:18.198Z,1.80
2022-08-25T02:12:45.352Z,1.75
2022-08-25T02:15:12.615Z,1.33
2022-08-25T02:17:39.826Z,1.80
2022-08-25T02:20:10.941Z,1.67
2022-08-25T02:22:38.100Z,2.22
2022-08-25T02:25:06.365Z,2.03
2022-08-25T02:27:33.617Z,1.47
2022-08-25T02:30:00.721Z,1.65
2022-08-25T02:32:27.901Z,1.42
2022-08-25T02:34:55.023Z,2.10
2022-08-25T02:37:22.241Z,1.80
2022-08-25T02:39:50.172Z,1.83
2022-08-25T02:42:17.385Z,2.03
2022-08-25T02:44:44.505Z,1.92
2022-08-25T02:47:11.677Z,2.53
2022-08-25T02:49:38.851Z,1.50
2022-08-25T02:52:06.064Z,1.77
2022-08-25T02:54:33.197Z,1.83
2022-08-25T02:57:00.369Z,2.08
2022-08-25T02:59:27.445Z,1.30
2022-08-25T03:01:54.632Z,1.35
2022-08-25T03:04:22.123Z,1.73
2022-08-25T03:06:49.438Z,1.75
2022-08-25T03:09:16.683Z,3.25
2022-08-25T03:11:43.926Z,1.60
2022-08-25T03:14:11.097Z,1.60
2022-08-25T03:16:38.270Z,1.90
2022-08-25T03:19:06.039Z,1.77
2022-08-25T03:21:33.344Z,1.95
2022-08-25T03:24:01.032Z,1.38
2022-08-25T03:26:47.055Z,1.63
2022-08-25T03:29:14.326Z,1.60
2022-08-25T03:31:44.651Z,1.60
2022-08-25T03:34:13.819Z,1.90
2022-08-25T03:36:40.915Z,1.67
2022-08-25T03:39:08.444Z,1.50
2022-08-25T03:41:35.865Z,1.58
2022-08-25T03:44:05.005Z,1.85
2022-08-25T03:46:35.381Z,2.53
2022-08-25T03:49:04.207Z,2.03
2022-08-25T03:51:34.817Z,2.25
2022-08-25T03:54:03.132Z,2.72
2022-08-25T03:56:31.198Z,2.10
2022-08-25T03:58:58.878Z,1.92
2022-08-25T04:01:26.979Z,2.30
2022-08-25T04:03:54.597Z,1.65
2022-08-25T04:06:22.363Z,2.50
2022-08-25T04:08:52.544Z,2.45
2022-08-25T04:11:23.113Z,1.98
2022-08-25T04:13:51.855Z,2.30
2022-08-25T04:16:22.877Z,2.30
2022-08-25T04:18:52.453Z,2.20
2022-08-25T04:21:21.048Z,2.47
2022-08-25T04:23:49.625Z,2.47
2022-08-25T04:26:21.279Z,2.35
2022-08-25T04:28:49.427Z,2.15
2022-08-25T04:31:18.456Z,2.03
2022-08-25T04:33:47.921Z,2.10
2022-08-25T04:36:16.843Z,2.08
2022-08-25T04:38:45.019Z,2.25
2022-08-25T04:41:13.816Z,2.45
2022-08-25T04:43:42.620Z,2.28
2022-08-25T04:46:22.511Z,2.50
2022-08-25T04:48:51.769Z,2.03
2022-08-25T04:53:47.367Z,1.80
2022-08-25T04:56:17.615Z,2.08
2022-08-25T04:58:47.042Z,2.03
2022-08-25T05:01:17.530Z,2.40
2022-08-25T05:03:46.004Z,1.95
2022-08-25T05:06:16.245Z,2.13
2022-08-25T05:08:46.072Z,1.65
2022-08-25T05:11:16.561Z,1.90
2022-08-25T05:13:50.070Z,2.22
2022-08-25T05:16:20.782Z,1.90
2022-08-25T05:18:48.015Z,2.00
2022-08-25T05:21:19.094Z,2.20
2022-08-25T05:23:46.975Z,1.90
2022-08-25T05:26:22.015Z,1.90
2022-08-25T05:28:53.186Z,2.03
2022-08-25T05:31:21.752Z,1.65
2022-08-25T05:33:49.053Z,1.98
2022-08-25T05:36:17.179Z,2.05
2022-08-25T05:38:44.331Z,1.73
2022-08-25T05:41:16.017Z,2.95
2022-08-25T05:43:46.665Z,1.70
2022-08-25T05:46:14.761Z,1.92
2022-08-25T05:48:42.397Z,1.70
2022-08-25T05:51:10.904Z,2.25
2022-08-25T05:53:41.393Z,2.07
2022-08-25T05:56:08.970Z,1.67
2022-08-25T05:58:37.583Z,1.98
2022-08-25T06:01:23.711Z,1.50
2022-08-25T06:03:54.472Z,2.00
2022-08-25T06:06:24.298Z,1.67
2022-08-25T06:08:51.834Z,1.83
2022-08-25T06:11:19.367Z,2.25
2022-08-25T06:13:46.570Z,1.60
2022-08-25T06:16:13.787Z,1.70
2022-08-25T06:18:40.997Z,2.13
2022-08-25T06:21:13.232Z,1.90
2022-08-25T06:23:41.490Z,1.77
2022-08-25T06:26:20.698Z,1.60
2022-08-25T06:28:50.306Z,1.90
2022-08-25T06:31:18.768Z,1.80
2022-08-25T06:33:46.303Z,1.88
2022-08-25T06:36:13.825Z,1.98
2022-08-25T06:38:41.351Z,2.10
2022-08-25T06:41:12.684Z,2.30
2022-08-25T06:43:47.343Z,2.38
2022-08-25T06:46:20.186Z,3.60
2022-08-25T06:48:48.342Z,2.50
2022-08-25T06:51:18.716Z,2.25
2022-08-25T06:53:47.633Z,2.42
2022-08-25T06:56:19.760Z,3.10
2022-08-25T06:58:47.898Z,2.20
2022-08-25T07:01:23.413Z,2.20
2022-08-25T07:03:59.685Z,2.58
2022-08-25T07:06:31.551Z,2.55
2022-08-25T07:08:59.507Z,2.55
2022-08-25T07:11:27.584Z,2.80
2022-08-25T07:13:55.060Z,2.13
2022-08-25T07:16:22.334Z,2.28
2022-08-25T07:18:50.935Z,2.22
2022-08-25T07:21:21.690Z,2.30
2022-08-25T07:23:51.654Z,2.25
2022-08-25T07:26:36.641Z,2.20
2022-08-25T07:29:13.933Z,2.38
2022-08-25T07:31:41.169Z,3.00
2022-08-25T07:34:28.510Z,2.60
2022-08-25T07:36:56.980Z,2.88
2022-08-25T07:39:25.107Z,2.60
2022-08-25T07:41:53.168Z,2.42
2022-08-25T07:44:22.558Z,2.92
2022-08-25T07:46:50.565Z,3.35
2022-08-25T07:49:23.260Z,2.80
2022-08-25T07:52:05.437Z,2.72
2022-08-25T07:54:35.579Z,2.55
2022-08-25T07:57:07.744Z,3.35
2022-08-25T07:59:40.118Z,2.97
2022-08-25T08:02:17.966Z,2.78
2022-08-25T08:04:51.242Z,3.47
2022-08-25T08:07:41.875Z,2.47
2022-08-25T08:13:00.895Z,3.00
2022-08-25T08:15:29.715Z,3.45
2022-08-25T08:20:25.699Z,3.08
2022-08-25T08:22:52.893Z,3.75
2022-08-25T08:25:21.415Z,3.05
2022-08-25T08:27:50.775Z,3.50
2022-08-25T08:30:23.823Z,3.28
2022-08-25T08:33:11.274Z,3.40
2022-08-25T08:35:41.064Z,3.22
2022-08-25T08:41:23.091Z,3.08
2022-08-25T08:43:56.315Z,3.53
2022-08-25T08:46:25.934Z,3.22
2022-08-25T08:49:02.580Z,3.50
2022-08-25T08:51:53.225Z,2.97
2022-08-25T08:54:27.842Z,3.38
2022-08-25T08:57:04.217Z,3.22
2022-08-25T08:59:41.841Z,3.17
2022-08-25T09:02:38.513Z,2.60
2022-08-25T09:05:09.723Z,2.65
2022-08-25T09:07:44.937Z,3.08
2022-08-25T09:10:17.325Z,2.88
2022-08-25T09:13:20.289Z,2.97
2022-08-25T09:19:34.379Z,2.80
2022-08-25T09:22:36.409Z,2.60
2022-08-25T09:25:29.494Z,3.08
2022-08-25T09:28:08.150Z,2.90
2022-08-25T09:31:12.148Z,2.58
2022-08-25T09:33:39.596Z,3.30
2022-08-25T09:36:09.050Z,2.53
2022-08-25T09:38:37.045Z,3.00
2022-08-25T09:41:07.181Z,2.75
2022-08-25T09:43:42.069Z,2.63
2022-08-25T09:46:23.553Z,2.75
2022-08-25T09:48:57.115Z,2.47
2022-08-25T09:51:26.545Z,2.92
2022-08-25T09:54:02.205Z,3.17
2022-08-25T09:56:49.695Z,2.35
2022-08-25T09:59:37.362Z,2.92
2022-08-25T10:02:23.840Z,2.78
2022-08-25T10:04:52.230Z,3.15
2022-08-25T10:07:30.382Z,2.67
2022-08-25T10:10:03.512Z,2.63
2022-08-25T10:12:42.659Z,2.40
2022-08-25T10:15:29.868Z,2.63
2022-08-25T10:18:26.025Z,3.08
2022-08-25T10:21:20.058Z,2.85
2022-08-25T10:23:53.383Z,2.65
2022-08-25T10:26:39.513Z,2.95
2022-08-25T10:29:32.529Z,3.70
2022-08-25T10:32:16.328Z,3.00
2022-08-25T10:34:51.637Z,2.53
2022-08-25T10:37:36.622Z,2.35
2022-08-25T10:40:22.440Z,2.72
2022-08-25T10:43:17.443Z,2.85
2022-08-25T10:45:59.180Z,3.03
2022-08-25T10:48:57.960Z,2.28
2022-08-25T10:51:46.736Z,2.38
2022-08-25T10:54:23.913Z,2.20
2022-08-25T10:57:07.159Z,2.00
2022-08-25T11:00:05.163Z,2.72
2022-08-25T11:02:44.551Z,2.25
2022-08-25T11:05:24.656Z,2.60
2022-08-25T11:08:01.041Z,2.35
2022-08-25T11:11:00.227Z,2.25
2022-08-25T11:13:50.441Z,2.20
2022-08-25T11:16:27.016Z,2.50
2022-08-25T11:19:02.607Z,2.42
2022-08-25T11:21:54.577Z,2.20
2022-08-25T11:24:26.569Z,2.90
2022-08-25T11:26:57.365Z,1.85
2022-08-25T11:29:31.213Z,2.38
2022-08-25T11:32:00.933Z,2.53
2022-08-25T11:34:32.789Z,2.50
2022-08-25T11:37:07.803Z,2.53
2022-08-25T11:40:18.950Z,2.33
2022-08-25T11:42:57.521Z,2.45
2022-08-25T11:45:46.750Z,2.40
2022-08-25T11:48:28.316Z,1.85
2022-08-25T11:51:05.175Z,2.60
2022-08-25T11:53:42.826Z,2.25
2022-08-25T11:56:33.158Z,2.25
2022-08-25T11:59:02.343Z,2.78
2022-08-25T12:01:44.599Z,1.98
2022-08-25T12:04:31.700Z,2.30
2022-08-25T12:07:10.999Z,2.38
2022-08-25T12:09:50.046Z,2.20
2022-08-25T12:12:56.983Z,2.42
2022-08-25T12:15:42.274Z,2.20
2022-08-25T12:18:23.348Z,2.40
2022-08-25T12:20:54.978Z,2.28
2022-08-25T12:23:45.071Z,2.20
2022-08-25T12:26:21.415Z,2.85
2022-08-25T12:29:10.451Z,2.42
2022-08-25T12:32:11.834Z,2.42
2022-08-25T12:34:41.779Z,2.40
2022-08-25T12:37:23.933Z,2.55
2022-08-25T12:39:51.478Z,2.08
2022-08-25T12:42:29.410Z,2.40
2022-08-25T12:45:23.566Z,2.13
2022-08-25T12:47:54.498Z,2.55
2022-08-25T12:50:43.283Z,2.45
2022-08-25T12:56:16.457Z,2.40
2022-08-25T12:59:02.664Z,2.50
2022-08-25T13:01:54.967Z,2.53
2022-08-25T13:04:42.003Z,2.63
2022-08-25T13:07:47.570Z,2.70
2022-08-25T13:10:45.975Z,3.30
2022-08-25T13:13:44.509Z,3.20
2022-08-25T13:16:28.391Z,2.33
2022-08-25T13:18:59.007Z,2.67
2022-08-25T13:21:41.593Z,2.47
2022-08-25T13:24:29.615Z,2.55
2022-08-25T13:27:01.041Z,2.10
2022-08-25T13:29:35.072Z,2.53
2022-08-25T13:32:09.481Z,3.20
2022-08-25T13:34:42.570Z,2.50
2022-08-25T13:37:29.607Z,3.22
2022-08-25T13:40:25.891Z,2.60
2022-08-25T13:42:56.466Z,2.85
2022-08-25T13:45:30.062Z,2.38
2022-08-25T13:47:59.255Z,3.25
2022-08-25T13:50:26.872Z,2.47
2022-08-25T13:52:56.013Z,2.75
2022-08-25T13:57:58.091Z,2.22
2022-08-25T14:00:43.181Z,2.53
2022-08-25T14:03:37.389Z,3.13
2022-08-25T14:06:16.407Z,3.40
2022-08-25T14:08:46.469Z,2.72
2022-08-25T14:11:25.383Z,3.42
2022-08-25T14:14:01.448Z,3.45
2022-08-25T14:16:33.327Z,3.55
2022-08-25T14:19:04.609Z,2.72
2022-08-25T14:21:33.829Z,3.80
2022-08-25T14:24:01.822Z,3.47
2022-08-25T14:26:28.985Z,3.40
2022-08-25T14:31:31.612Z,2.90
2022-08-25T14:34:04.868Z,3.20
2022-08-25T14:36:33.978Z,2.50
2022-08-25T14:39:08.639Z,3.35
2022-08-25T14:41:38.898Z,2.72
2022-08-25T14:44:06.952Z,3.15
2022-08-25T14:46:37.111Z,3.95
2022-08-25T14:49:07.416Z,3.85
2022-08-25T14:51:36.214Z,3.33
2022-08-25T14:54:07.234Z,3.70
2022-08-25T14:56:36.154Z,3.75
2022-08-25T14:59:04.812Z,3.60
2022-08-25T15:01:32.604Z,4.15
2022-08-25T15:04:13.000Z,3.88
2022-08-25T15:06:43.747Z,3.78
2022-08-25T15:09:16.105Z,3.28
2022-08-25T15:11:50.641Z,3.35
2022-08-25T15:14:28.995Z,3.60
2022-08-25T15:17:02.018Z,3.55
2022-08-25T15:19:29.515Z,3.33
2022-08-25T15:21:57.970Z,3.42
2022-08-25T15:24:28.331Z,3.65
2022-08-25T15:27:01.377Z,3.40
2022-08-25T15:29:30.327Z,3.58
2022-08-25T15:32:00.543Z,3.50
2022-08-25T15:34:28.626Z,3.05
2022-08-25T15:36:58.311Z,2.63
2022-08-25T15:39:27.526Z,3.63
2022-08-25T15:41:54.728Z,3.03
2022-08-25T15:44:29.253Z,3.30
2022-08-25T15:46:58.757Z,3.10
2022-08-25T15:49:26.903Z,2.83
2022-08-25T15:51:57.013Z,3.33
2022-08-25T15:54:26.634Z,3.00
2022-08-25T15:56:55.769Z,3.03
2022-08-25T15:59:25.206Z,3.30
2022-08-25T16:01:54.032Z,3.67
2022-08-25T16:04:23.461Z,3.53
2022-08-25T16:06:51.898Z,3.60
2022-08-25T16:09:22.835Z,3.88
2022-08-25T16:11:56.619Z,4.00
2022-08-25T16:14:26.057Z,3.90
2022-08-25T16:16:53.176Z,3.47
2022-08-25T16:19:29.439Z,3.58
2022-08-25T16:21:58.082Z,4.07
2022-08-25T16:24:25.531Z,4.30
2022-08-25T16:26:55.537Z,3.50
2022-08-25T16:29:23.815Z,3.15
2022-08-25T16:31:53.291Z,3.88
2022-08-25T16:34:24.661Z,3.90
2022-08-25T16:36:55.859Z,4.47
2022-08-25T16:39:23.977Z,3.90
2022-08-25T16:44:22.429Z,4.05
2022-08-25T16:46:54.210Z,3.38
2022-08-25T16:49:24.195Z,3.63
2022-08-25T16:51:57.152Z,2.88
2022-08-25T16:54:44.933Z,3.65
2022-08-25T16:57:12.280Z,3.20
2022-08-25T16:59:39.489Z,2.72
2022-08-25T17:02:06.765Z,3.38
2022-08-25T17:04:33.971Z,3.72
2022-08-25T17:07:01.906Z,3.17
2022-08-25T17:09:30.027Z,2.70
2022-08-25T17:11:57.580Z,3.22
2022-08-25T17:14:25.049Z,3.00
2022-08-25T17:16:55.015Z,3.30
2022-08-25T17:19:24.889Z,3.38
2022-08-25T17:21:54.357Z,3.00
2022-08-25T17:24:22.410Z,3.58
2022-08-25T17:26:56.860Z,3.58
2022-08-25T17:29:23.973Z,3.42
2022-08-25T17:31:51.674Z,3.20
2022-08-25T17:34:23.072Z,3.63
2022-08-25T17:36:51.561Z,3.00
2022-08-25T17:39:19.774Z,3.53
2022-08-25T17:41:50.523Z,3.45
2022-08-25T17:44:19.510Z,3.30
2022-08-25T17:46:48.011Z,3.30
2022-08-25T17:49:16.997Z,3.38
2022-08-25T17:51:44.176Z,3.10
2022-08-25T17:54:12.794Z,3.17
2022-08-25T17:56:40.154Z,3.35
2022-08-25T17:59:07.508Z,3.15
2022-08-25T18:01:40.259Z,2.65
2022-08-25T18:04:17.532Z,3.05
2022-08-25T18:06:47.475Z,2.70
2022-08-25T18:09:16.021Z,2.55
2022-08-25T18:11:43.488Z,3.28
2022-08-25T18:14:12.558Z,3.37
2022-08-25T18:16:40.789Z,2.67
2022-08-25T18:19:10.751Z,2.47
2022-08-25T18:24:07.859Z,3.45
2022-08-25T18:26:35.597Z,2.63
2022-08-25T18:29:03.587Z,3.22
2022-08-25T18:31:32.367Z,2.70
2022-08-25T18:33:59.760Z,2.55
2022-08-25T18:36:26.928Z,2.90
2022-08-25T18:39:13.583Z,3.53
2022-08-25T18:41:42.399Z,2.92
2022-08-25T18:49:07.107Z,3.08
2022-08-25T18:54:04.241Z,3.08
2022-08-25T18:56:31.680Z,2.50
2022-08-25T18:59:00.100Z,3.08
2022-08-25T19:01:27.416Z,3.17
2022-08-25T19:03:56.468Z,3.13
2022-08-25T19:06:23.906Z,3.00
2022-08-25T19:08:51.122Z,2.90
2022-08-25T19:11:22.207Z,3.22
2022-08-25T19:13:50.807Z,2.90
2022-08-25T19:16:30.587Z,2.60
2022-08-25T19:18:58.349Z,3.33
2022-08-25T19:21:25.849Z,2.75
2022-08-25T19:23:53.460Z,2.95
2022-08-25T19:26:20.951Z,3.00
2022-08-25T19:28:49.867Z,3.30
2022-08-25T19:31:18.656Z,2.90
2022-08-25T19:33:48.090Z,2.80
2022-08-25T19:36:17.619Z,2.38
2022-08-25T19:38:49.392Z,2.95
2022-08-25T19:41:20.508Z,2.50
2022-08-25T19:43:56.459Z,2.95
2022-08-25T19:46:33.040Z,2.90
2022-08-25T19:49:11.569Z,3.00
2022-08-25T19:51:44.174Z,2.40
2022-08-25T19:54:14.107Z,3.08
2022-08-25T19:56:43.652Z,2.70
2022-08-25T19:59:23.172Z,2.40
2022-08-25T20:01:50.379Z,3.38
2022-08-25T20:04:17.631Z,3.25
2022-08-25T20:06:48.445Z,2.95
2022-08-25T20:09:35.573Z,3.40
2022-08-25T20:12:06.303Z,3.45
2022-08-25T20:14:33.925Z,2.80
2022-08-25T20:17:02.765Z,3.05
2022-08-25T20:19:31.068Z,3.22
2022-08-25T20:21:58.947Z,2.40
2022-08-25T20:24:44.691Z,2.75
2022-08-25T20:27:12.095Z,3.08
2022-08-25T20:29:39.295Z,2.65
2022-08-25T20:32:11.840Z,3.30
2022-08-25T20:34:39.156Z,3.15
2022-08-25T20:37:06.867Z,3.17
2022-08-25T20:39:34.082Z,3.42
2022-08-25T20:42:02.270Z,3.33
2022-08-25T20:44:33.676Z,3.35
2022-08-25T20:47:02.813Z,2.80
2022-08-25T20:49:37.711Z,3.03
2022-08-25T20:52:07.472Z,2.85
2022-08-25T20:54:35.266Z,2.80
2022-08-25T20:57:02.759Z,2.92
2022-08-25T20:59:31.803Z,2.53
2022-08-25T21:04:29.124Z,2.80
2022-08-25T21:06:58.020Z,3.08
2022-08-25T21:09:26.501Z,3.05
2022-08-25T21:11:56.674Z,3.30
2022-08-25T21:14:25.495Z,3.38
2022-08-25T21:16:54.374Z,3.35
2022-08-25T21:19:26.256Z,2.77
2022-08-25T21:21:59.485Z,2.95
2022-08-25T21:24:28.357Z,2.75
2022-08-25T21:26:57.463Z,3.13
2022-08-25T21:29:28.543Z,2.75
2022-08-25T21:31:58.585Z,2.80
2022-08-25T21:34:26.267Z,3.25
2022-08-25T21:36:57.855Z,2.67
2022-08-25T21:39:27.546Z,3.13
2022-08-25T21:41:58.487Z,3.15
2022-08-25T21:44:28.028Z,3.33
2022-08-25T21:46:56.127Z,3.67
2022-08-25T21:49:24.706Z,2.80
2022-08-25T21:52:00.614Z,2.60
2022-08-25T21:54:29.173Z,3.75
2022-08-25T21:57:00.115Z,3.28
2022-08-25T21:59:30.078Z,3.33
2022-08-25T22:01:59.731Z,3.30
2022-08-25T22:04:28.136Z,3.05
2022-08-25T22:06:55.746Z,3.45
2022-08-25T22:09:26.430Z,3.72
2022-08-25T22:11:55.972Z,3.40
2022-08-25T22:14:26.234Z,3.28
2022-08-25T22:16:54.843Z,3.22
2022-08-25T22:19:23.050Z,3.53
2022-08-25T22:21:51.157Z,3.17
2022-08-25T22:24:19.268Z,3.45
2022-08-25T22:26:47.555Z,3.75
2022-08-25T22:29:24.984Z,3.00
2022-08-25T22:31:59.654Z,3.30
2022-08-25T22:34:33.185Z,2.90
2022-08-25T22:37:01.957Z,3.60
2022-08-25T22:39:32.119Z,2.95
2022-08-25T22:42:02.104Z,3.20
2022-08-25T22:44:29.202Z,3.47
2022-08-25T22:46:56.604Z,4.05
2022-08-25T22:49:23.727Z,3.28
2022-08-25T22:51:51.058Z,3.55
2022-08-25T22:54:20.932Z,3.10
2022-08-25T22:56:48.048Z,3.40
2022-08-25T22:59:15.433Z,3.60
2022-08-25T23:01:45.482Z,3.13
2022-08-25T23:04:14.711Z,2.97
2022-08-25T23:06:42.369Z,3.80
2022-08-25T23:09:12.736Z,3.42
2022-08-25T23:11:41.246Z,4.10
2022-08-25T23:14:10.970Z,3.30
2022-08-25T23:16:39.267Z,3.72
2022-08-25T23:19:06.686Z,3.67
2022-08-25T23:21:54.469Z,3.25
2022-08-25T23:24:26.900Z,3.58
2022-08-25T23:27:03.842Z,3.78
2022-08-25T23:29:34.284Z,3.70
2022-08-25T23:32:04.062Z,3.75
2022-08-25T23:34:31.287Z,3.55
2022-08-25T23:37:01.467Z,3.72
2022-08-25T23:39:28.621Z,3.35
2022-08-25T23:41:55.782Z,3.67
2022-08-25T23:44:23.318Z,3.90
2022-08-25T23:46:52.851Z,3.95
2022-08-25T23:49:22.296Z,3.85
2022-08-25T23:51:52.777Z,3.35
2022-08-25T23:54:21.401Z,3.33
2022-08-25T23:56:52.239Z,3.42
2022-08-25T23:59:24.661Z,3.35
